Time;durP1;ratioP1;P1;durP2;ratioP2;P2;SDS_P1;SDS_P2;PMS_P1;PMS_P2;Temp;Humidity;BMP_temperature;BMP_pressure;BME280_temperature;BME280_humidity;BME280_pressure;Samples;Min_cycle;Max_cycle;Signal;HPM_P1;HPM_P2
2024/01/04 00:01:12;;;;;;;9.68;1.85;;;;;;;12.29;80.01;99631.47;4990367;28;20069;-48
2024/01/04 00:03:37;;;;;;;9.57;2.00;;;;;;;12.23;80.29;99640.25;4990537;28;20030;-48
2024/01/04 00:06:03;;;;;;;8.63;2.05;;;;;;;12.26;80.20;99642.81;4990610;28;20026;-46
2024/01/04 00:08:28;;;;;;;10.02;2.08;;;;;;;12.17;80.14;99645.56;4991729;28;20053;-45
2024/01/04 00:10:54;;;;;;;13.35;1.95;;;;;;;12.13;81.00;99654.31;4992674;28;20034;-43
2024/01/04 00:13:19;;;;;;;9.93;2.10;;;;;;;12.32;80.61;99658.41;4990561;28;20046;-45
2024/01/04 00:15:44;;;;;;;15.52;2.50;;;;;;;12.32;80.63;99660.19;4991653;28;20037;-44
2024/01/04 00:18:09;;;;;;;15.25;2.67;;;;;;;12.43;79.97;99668.75;4992572;28;20031;-43
2024/01/04 00:20:35;;;;;;;12.95;2.47;;;;;;;12.33;80.16;99674.94;4992256;28;20490;-44
2024/01/04 00:23:00;;;;;;;11.05;2.50;;;;;;;12.23;81.03;99679.44;4990026;28;20122;-46
2024/01/04 00:25:25;;;;;;;9.45;2.60;;;;;;;12.51;79.37;99675.56;4990546;28;20165;-44
2024/01/04 00:27:51;;;;;;;16.58;3.22;;;;;;;12.62;79.20;99665.00;4990096;28;20045;-46
2024/01/04 00:30:17;;;;;;;11.07;2.58;;;;;;;12.88;77.86;99667.19;4991026;28;20038;-45
2024/01/04 00:32:43;;;;;;;14.13;2.70;;;;;;;12.40;79.51;99674.84;4989749;28;20038;-46
2024/01/04 00:35:08;;;;;;;12.48;2.70;;;;;;;12.87;78.23;99686.41;4990518;28;20452;-44
2024/01/04 00:37:34;;;;;;;15.63;3.08;;;;;;;12.74;78.41;99692.72;4990703;28;20125;-50
2024/01/04 00:39:59;;;;;;;11.75;3.05;;;;;;;12.66;78.58;99695.44;4988966;28;20063;-48
2024/01/04 00:42:25;;;;;;;15.13;3.85;;;;;;;12.45;79.20;99700.94;4990630;28;20097;-43
2024/01/04 00:44:50;;;;;;;14.98;3.67;;;;;;;12.49;80.26;99700.91;4989801;28;20034;-47
2024/01/04 00:47:16;;;;;;;14.93;4.10;;;;;;;12.34;80.67;99703.69;4990749;28;20046;-44
2024/01/04 00:49:41;;;;;;;13.18;3.78;;;;;;;12.51;79.83;99716.53;4982186;28;20084;-46
2024/01/04 00:52:06;;;;;;;10.43;3.95;;;;;;;12.19;80.33;99709.13;4990149;28;20034;-49
2024/01/04 00:54:31;;;;;;;12.82;3.65;;;;;;;11.96;80.70;99725.03;4988648;28;20043;-45
2024/01/04 00:56:58;;;;;;;14.80;3.72;;;;;;;12.25;79.02;99731.69;4987907;28;20088;-49
2024/01/04 00:59:23;;;;;;;12.88;3.35;;;;;;;12.38;78.74;99733.28;4990939;28;20042;-44
2024/01/04 01:01:48;;;;;;;10.75;2.97;;;;;;;11.95;79.25;99753.78;4991342;28;20672;-44
2024/01/04 01:04:14;;;;;;;9.27;2.40;;;;;;;11.99;78.71;99756.34;4991535;28;20092;-44
2024/01/04 01:06:39;;;;;;;7.93;2.25;;;;;;;11.94;77.86;99757.28;4989540;28;20041;-46
2024/01/04 01:09:04;;;;;;;8.38;2.10;;;;;;;11.78;77.34;99767.84;4990914;28;20401;-45
2024/01/04 01:11:29;;;;;;;7.80;2.20;;;;;;;12.02;77.03;99768.50;4991443;28;20030;-44
2024/01/04 01:13:55;;;;;;;7.97;2.30;;;;;;;12.05;77.26;99763.25;4993956;28;20215;-44
2024/01/04 01:16:20;;;;;;;11.07;2.95;;;;;;;12.27;76.54;99771.72;4995062;28;20038;-45
2024/01/04 01:18:46;;;;;;;12.63;2.90;;;;;;;12.32;76.72;99778.63;4994966;28;20066;-47
2024/01/04 01:21:11;;;;;;;9.65;3.25;;;;;;;12.22;77.16;99769.16;4993611;28;20039;-43
2024/01/04 01:23:36;;;;;;;12.23;3.42;;;;;;;11.90;78.84;99779.06;4993829;28;20552;-46
2024/01/04 01:26:02;;;;;;;13.95;3.70;;;;;;;12.12;78.38;99783.22;4993488;28;20053;-46
2024/01/04 01:28:29;;;;;;;11.77;4.00;;;;;;;12.16;78.73;99782.28;4993770;28;20516;-49
2024/01/04 01:30:54;;;;;;;17.15;4.10;;;;;;;12.35;78.63;99786.44;4990899;28;20567;-49
2024/01/04 01:33:19;;;;;;;13.80;4.50;;;;;;;12.54;77.35;99794.94;4994453;28;20050;-44
2024/01/04 01:35:45;;;;;;;20.65;5.03;;;;;;;12.59;77.64;99798.38;4993615;28;20034;-46
2024/01/04 01:38:10;;;;;;;19.13;4.72;;;;;;;12.62;77.59;99802.69;4994042;28;20042;-48
2024/01/04 01:40:35;;;;;;;18.85;5.15;;;;;;;12.47;78.40;99806.34;4994017;28;20104;-45
2024/01/04 01:43:01;;;;;;;18.83;5.20;;;;;;;12.41;78.79;99809.91;4993665;28;20026;-45
2024/01/04 01:45:26;;;;;;;18.05;5.50;;;;;;;12.27;79.45;99817.00;4993537;28;20030;-45
2024/01/04 01:47:52;;;;;;;13.80;5.05;;;;;;;12.56;78.24;99821.94;4993455;28;20177;-49
2024/01/04 01:50:21;;;;;;;17.63;5.50;;;;;;;12.66;77.72;99817.47;4993813;28;20034;-45
2024/01/04 01:52:48;;;;;;;20.65;6.22;;;;;;;12.62;78.30;99834.09;4994910;28;20043;-46
2024/01/04 01:55:15;;;;;;;15.88;5.72;;;;;;;12.58;78.09;99831.47;4994692;28;20046;-46
2024/01/04 01:57:41;;;;;;;23.05;6.25;;;;;;;12.61;78.07;99833.22;4994873;28;20637;-46
2024/01/04 02:00:09;;;;;;;15.88;5.72;;;;;;;12.40;78.83;99841.28;4993548;28;20022;-44
2024/01/04 02:02:35;;;;;;;20.13;6.78;;;;;;;12.62;78.67;99844.53;4993637;28;20069;-45
2024/01/04 02:05:00;;;;;;;20.02;6.57;;;;;;;12.46;79.28;99844.69;4991239;28;20136;-45
2024/01/04 02:07:26;;;;;;;15.15;6.47;;;;;;;12.88;78.03;99843.31;4993270;28;20039;-47
2024/01/04 02:09:51;;;;;;;19.90;6.70;;;;;;;12.87;77.61;99843.34;4992846;28;20031;-44
2024/01/04 02:12:16;;;;;;;16.95;6.38;;;;;;;12.63;77.91;99857.56;4993239;28;20042;-45
2024/01/04 02:14:42;;;;;;;16.40;5.65;;;;;;;12.45;78.40;99857.78;4993355;28;20505;-48
2024/01/04 02:17:07;;;;;;;11.30;4.93;;;;;;;12.79;77.46;99859.16;4993013;28;20030;-44
2024/01/04 02:19:33;;;;;;;14.23;5.00;;;;;;;12.68;77.12;99862.78;4991906;28;20164;-46
2024/01/04 02:21:59;;;;;;;11.05;3.97;;;;;;;12.60;76.37;99861.09;4991681;28;20062;-46
2024/01/04 02:24:25;;;;;;;12.15;3.78;;;;;;;12.81;75.90;99873.06;4992378;28;20045;-46
2024/01/04 02:26:51;;;;;;;12.48;3.10;;;;;;;13.09;74.33;99877.97;4992920;28;20031;-48
2024/01/04 02:29:16;;;;;;;6.55;2.03;;;;;;;12.31;76.75;99885.81;4993009;28;20044;-51
2024/01/04 02:31:43;;;;;;;5.18;1.75;;;;;;;12.26;76.26;99895.44;4992860;28;20034;-45
2024/01/04 02:34:09;;;;;;;7.13;2.00;;;;;;;12.28;76.72;99897.16;4991989;28;20549;-46
2024/01/04 02:36:34;;;;;;;6.03;1.70;;;;;;;12.09;76.94;99893.81;4992510;28;20078;-50
2024/01/04 02:38:59;;;;;;;4.00;1.70;;;;;;;12.32;76.40;99903.22;4992713;28;20046;-50
2024/01/04 02:41:25;;;;;;;6.30;1.58;;;;;;;12.11;77.42;99899.91;4992613;28;20062;-46
2024/01/04 02:43:51;;;;;;;5.38;1.30;;;;;;;11.94;77.38;99895.72;4991881;28;20042;-45
2024/01/04 02:46:16;;;;;;;11.52;1.65;;;;;;;12.17;77.18;99910.31;4992589;28;20039;-46
2024/01/04 02:48:42;;;;;;;5.60;1.73;;;;;;;12.16;76.99;99905.09;4991327;28;20085;-49
2024/01/04 02:51:07;;;;;;;7.47;1.60;;;;;;;12.24;76.59;99903.28;4992074;28;20069;-42
2024/01/04 02:53:33;;;;;;;6.90;1.65;;;;;;;12.51;75.60;99907.38;4991746;28;20051;-46
2024/01/04 02:55:58;;;;;;;5.88;1.40;;;;;;;12.45;75.70;99905.69;4992160;28;20396;-44
2024/01/04 02:58:23;;;;;;;6.43;1.77;;;;;;;12.30;76.93;99905.84;4992910;28;20451;-48
2024/01/04 03:00:49;;;;;;;7.82;1.70;;;;;;;12.75;74.92;99909.75;4992255;28;20042;-48
2024/01/04 03:03:14;;;;;;;7.03;2.05;;;;;;;12.74;75.06;99915.88;4992178;28;20038;-44
2024/01/04 03:05:39;;;;;;;10.82;2.00;;;;;;;12.70;75.35;99916.78;4992335;28;20073;-43
2024/01/04 03:08:05;;;;;;;6.55;2.00;;;;;;;12.68;75.78;99921.19;4991756;28;20128;-45
2024/01/04 03:10:31;;;;;;;5.60;2.38;;;;;;;12.40;76.88;99927.53;4992369;28;20031;-45
2024/01/04 03:12:56;;;;;;;8.60;3.30;;;;;;;11.77;79.29;99928.00;4991806;28;20049;-44
2024/01/04 03:15:21;;;;;;;9.02;3.42;;;;;;;12.14;78.95;99926.00;4993765;28;20049;-42
2024/01/04 03:17:46;;;;;;;18.73;4.28;;;;;;;12.07;79.55;99944.38;4994480;28;20038;-43
2024/01/04 03:20:12;;;;;;;13.98;3.92;;;;;;;12.10;80.33;99931.28;4993627;28;20034;-47
2024/01/04 03:22:37;;;;;;;14.32;4.90;;;;;;;12.00;80.50;99940.06;4993332;28;20034;-43
2024/01/04 03:25:05;;;;;;;15.63;4.90;;;;;;;12.31;79.87;99941.56;4991641;28;20042;-47
2024/01/04 03:27:30;;;;;;;14.88;5.22;;;;;;;12.60;79.26;99942.16;4991977;28;20665;-45
2024/01/04 03:29:56;;;;;;;11.45;4.70;;;;;;;11.77;83.24;99941.06;4991516;28;20125;-47
2024/01/04 03:32:21;;;;;;;16.48;4.65;;;;;;;12.25;81.39;99948.59;4993605;28;20097;-45
2024/01/04 03:34:47;;;;;;;12.93;4.65;;;;;;;12.20;81.22;99951.22;4993701;28;20048;-43
2024/01/04 03:37:12;;;;;;;14.32;4.63;;;;;;;12.19;81.19;99965.19;4992621;28;20038;-44
2024/01/04 03:39:37;;;;;;;12.43;4.53;;;;;;;12.15;82.09;99956.47;4993105;28;20403;-45
2024/01/04 03:42:03;;;;;;;11.88;4.20;;;;;;;12.04;82.08;99963.53;4991089;28;20038;-45
2024/01/04 03:44:28;;;;;;;13.07;4.75;;;;;;;12.29;80.47;99964.22;4991624;28;20116;-46
2024/01/04 03:46:53;;;;;;;15.10;4.60;;;;;;;12.22;80.88;99969.50;4990639;28;20718;-51
2024/01/04 03:49:19;;;;;;;14.30;4.25;;;;;;;12.34;80.65;99967.66;4991039;28;20045;-44
2024/01/04 03:51:44;;;;;;;15.07;4.40;;;;;;;12.41;80.31;99978.94;4990703;28;20034;-47
2024/01/04 03:54:09;;;;;;;12.23;4.13;;;;;;;12.29;81.06;99976.41;4991080;28;20042;-45
2024/01/04 03:56:35;;;;;;;13.93;4.40;;;;;;;12.35;80.34;99977.25;4990782;28;20064;-45
2024/01/04 03:59:00;;;;;;;13.60;4.05;;;;;;;12.38;80.54;99979.81;4990737;28;20030;-48
2024/01/04 04:01:25;;;;;;;19.73;4.63;;;;;;;12.31;80.47;99985.13;4991666;28;20506;-44
2024/01/04 04:03:51;;;;;;;11.40;4.13;;;;;;;12.58;79.67;99979.66;4990555;28;20030;-44
2024/01/04 04:06:19;;;;;;;13.13;4.30;;;;;;;12.83;78.29;99993.38;4991320;28;20046;-44
2024/01/04 04:08:44;;;;;;;12.55;4.10;;;;;;;12.85;78.63;99991.63;4990741;28;20034;-48
2024/01/04 04:11:17;;;;;;;13.45;3.92;;;;;;;12.80;78.98;99996.91;4992214;28;20113;-45
2024/01/04 04:13:42;;;;;;;16.35;4.38;;;;;;;12.55;79.58;99988.41;4993272;28;20047;-48
2024/01/04 04:16:07;;;;;;;13.75;3.95;;;;;;;12.30;81.02;99999.06;4994468;28;20031;-45
2024/01/04 04:18:33;;;;;;;19.00;4.80;;;;;;;12.17;80.84;100006.13;4994658;28;20041;-48
2024/01/04 04:20:58;;;;;;;15.13;4.03;;;;;;;12.61;79.61;100005.78;4996051;28;20048;-43
2024/01/04 04:23:23;;;;;;;18.73;3.63;;;;;;;12.69;79.24;100005.69;4995520;28;20034;-45
2024/01/04 04:25:49;;;;;;;14.57;3.85;;;;;;;12.41;79.76;100010.31;4992496;28;20042;-47
2024/01/04 04:28:14;;;;;;;17.05;4.32;;;;;;;12.45;80.07;100009.38;4990984;28;20076;-45
2024/01/04 04:30:39;;;;;;;15.35;3.60;;;;;;;12.67;79.48;100002.25;4989903;28;20065;-47
2024/01/04 04:33:05;;;;;;;10.43;3.83;;;;;;;12.55;79.69;100001.47;4990048;28;20077;-45
2024/01/04 04:35:30;;;;;;;17.08;4.28;;;;;;;12.62;78.88;100006.66;4990277;28;20088;-46
2024/01/04 04:37:55;;;;;;;17.17;3.60;;;;;;;12.48;79.86;100015.47;4990181;28;20504;-50
2024/01/04 04:40:21;;;;;;;15.48;4.07;;;;;;;12.46;79.32;100022.47;4990469;28;20034;-44
2024/01/04 04:42:46;;;;;;;13.43;3.75;;;;;;;12.48;79.38;100018.09;4989755;28;20034;-47
2024/01/04 04:45:12;;;;;;;12.20;3.70;;;;;;;12.67;79.07;100024.03;4990427;28;20121;-44
2024/01/04 04:47:37;;;;;;;13.70;3.83;;;;;;;12.45;79.27;100028.56;4991503;28;20562;-47
2024/01/04 04:50:03;;;;;;;12.80;4.05;;;;;;;12.85;78.26;100030.84;4994314;28;20072;-45
2024/01/04 04:52:29;;;;;;;15.13;4.93;;;;;;;12.64;78.80;100024.03;4994773;28;20034;-48
2024/01/04 04:54:55;;;;;;;14.25;4.40;;;;;;;12.76;78.49;100029.16;4993892;28;20440;-45
2024/01/04 04:57:21;;;;;;;12.73;4.47;;;;;;;12.58;79.44;100039.78;4994715;28;20042;-48
2024/01/04 04:59:47;;;;;;;21.67;4.40;;;;;;;12.69;79.14;100048.41;4994293;28;20045;-47
2024/01/04 05:02:12;;;;;;;12.40;3.30;;;;;;;12.15;80.79;100052.28;4994643;28;20139;-47
2024/01/04 05:04:37;;;;;;;7.93;2.50;;;;;;;12.20;79.37;100055.75;4993760;28;20030;-46
2024/01/04 05:07:03;;;;;;;7.80;2.22;;;;;;;12.11;78.92;100054.06;4993776;28;20045;-49
2024/01/04 05:09:28;;;;;;;4.80;1.80;;;;;;;12.01;78.56;100060.22;4994768;28;20038;-45
2024/01/04 05:11:54;;;;;;;9.13;1.98;;;;;;;12.02;79.55;100061.06;4993524;28;20122;-46
2024/01/04 05:14:19;;;;;;;3.05;1.60;;;;;;;12.03;78.60;100060.19;4994028;28;20534;-49
2024/01/04 05:16:44;;;;;;;5.93;2.22;;;;;;;11.76;79.77;100071.66;4993285;28;20034;-44
2024/01/04 05:19:10;;;;;;;12.48;2.88;;;;;;;11.83;80.51;100073.38;4993803;28;20045;-48
2024/01/04 05:21:36;;;;;;;7.93;2.50;;;;;;;11.78;81.13;100065.53;4993879;28;20038;-46
2024/01/04 05:24:01;;;;;;;5.65;1.95;;;;;;;11.84;79.81;100074.22;4991505;28;20476;-44
2024/01/04 05:26:27;;;;;;;6.07;1.80;;;;;;;11.92;79.63;100072.44;4993993;28;20121;-44
2024/01/04 05:28:52;;;;;;;6.72;2.10;;;;;;;12.05;79.04;100074.13;4993251;28;20042;-44
2024/01/04 05:31:20;;;;;;;6.55;2.40;;;;;;;12.11;79.04;100079.31;4994254;28;20038;-45
2024/01/04 05:33:46;;;;;;;8.73;2.90;;;;;;;11.97;79.93;100081.13;4993119;28;20042;-45
2024/01/04 05:36:12;;;;;;;8.15;2.80;;;;;;;12.19;79.84;100082.78;4993467;28;20485;-44
2024/01/04 05:38:37;;;;;;;8.27;3.00;;;;;;;12.35;79.38;100087.03;4993713;28;20061;-49
2024/01/04 05:41:04;;;;;;;11.70;2.90;;;;;;;12.39;79.18;100087.84;4993473;28;20130;-46
2024/01/04 05:43:30;;;;;;;8.93;2.97;;;;;;;12.40;78.58;100094.81;4991844;28;20030;-45
2024/01/04 05:45:56;;;;;;;7.90;2.80;;;;;;;12.32;79.25;100099.25;4992801;28;20400;-45
2024/01/04 05:48:21;;;;;;;8.38;2.67;;;;;;;11.95;80.62;100103.81;4993478;28;20117;-47
2024/01/04 05:50:47;;;;;;;7.80;3.13;;;;;;;12.24;80.30;100101.03;4993126;28;20038;-53
2024/01/04 05:53:12;;;;;;;12.20;3.10;;;;;;;12.11;80.38;100105.44;4993365;28;20050;-44
2024/01/04 05:55:37;;;;;;;11.73;3.42;;;;;;;12.30;79.71;100106.22;4993707;28;20042;-43
2024/01/04 05:58:03;;;;;;;10.80;3.20;;;;;;;12.39;79.26;100121.84;4992776;28;20027;-43
2024/01/04 06:00:28;;;;;;;12.10;3.30;;;;;;;12.53;79.07;100122.63;4991990;28;20089;-44
2024/01/04 06:02:53;;;;;;;9.65;3.50;;;;;;;12.29;79.93;100121.03;4992624;28;20041;-46
2024/01/04 06:05:19;;;;;;;10.77;3.30;;;;;;;12.33;80.61;100124.47;4993047;28;20073;-43
2024/01/04 06:07:44;;;;;;;11.15;3.55;;;;;;;12.39;80.67;100127.06;4991696;28;20521;-44
2024/01/04 06:10:09;;;;;;;11.98;3.80;;;;;;;12.15;80.79;100123.72;4991457;28;20041;-50
2024/01/04 06:12:34;;;;;;;11.75;3.63;;;;;;;12.58;79.52;100129.56;4993119;28;20042;-45
2024/01/04 06:15:03;;;;;;;10.68;4.00;;;;;;;12.56;80.38;100133.91;4992943;28;20034;-45
2024/01/04 06:17:28;;;;;;;13.55;4.00;;;;;;;12.28;80.02;100137.59;4993114;28;20034;-45
2024/01/04 06:19:54;;;;;;;15.35;3.75;;;;;;;12.69;78.90;100141.69;4992486;28;20039;-46
2024/01/04 06:22:20;;;;;;;10.90;3.78;;;;;;;12.75;78.44;100139.03;4992731;28;20436;-49
2024/01/04 06:24:46;;;;;;;9.63;3.47;;;;;;;12.70;78.23;100148.66;4991997;28;20535;-45
2024/01/04 06:27:11;;;;;;;9.10;3.30;;;;;;;12.58;78.74;100150.47;4993133;28;20026;-45
2024/01/04 06:29:37;;;;;;;11.70;3.65;;;;;;;12.50;80.02;100151.41;4993372;28;20129;-45
2024/01/04 06:32:02;;;;;;;14.27;3.63;;;;;;;12.69;78.75;100153.00;4993531;28;20046;-43
2024/01/04 06:34:28;;;;;;;11.02;3.38;;;;;;;12.69;78.63;100150.41;4993187;28;20058;-44
2024/01/04 06:36:53;;;;;;;11.65;3.10;;;;;;;12.57;78.93;100158.31;4992068;28;20089;-46
2024/01/04 06:39:18;;;;;;;13.57;3.63;;;;;;;12.69;78.18;100171.31;4992866;28;20153;-45
2024/01/04 06:41:44;;;;;;;10.15;3.38;;;;;;;12.95;77.62;100158.94;4992823;28;20042;-45
2024/01/04 06:44:10;;;;;;;12.50;3.03;;;;;;;12.73;77.85;100165.22;4993330;28;20030;-47
2024/01/04 06:46:35;;;;;;;10.77;2.70;;;;;;;12.37;77.85;100168.03;4993062;28;20040;-45
2024/01/04 06:49:00;;;;;;;7.18;2.22;;;;;;;12.47;76.78;100181.06;4992431;28;20042;-45
2024/01/04 06:51:26;;;;;;;4.20;1.70;;;;;;;12.27;75.83;100184.63;4993884;28;20046;-44
2024/01/04 06:53:51;;;;;;;5.32;1.63;;;;;;;12.50;74.50;100186.25;4992107;28;20065;-47
2024/01/04 06:56:18;;;;;;;2.90;1.35;;;;;;;12.45;73.89;100193.25;4993349;28;20056;-43
2024/01/04 06:58:44;;;;;;;2.60;1.15;;;;;;;12.42;73.91;100198.50;4992693;28;20674;-46
2024/01/04 07:01:10;;;;;;;7.28;1.70;;;;;;;12.24;74.54;100195.97;4992428;28;20057;-45
2024/01/04 07:03:36;;;;;;;5.05;1.52;;;;;;;11.88;75.98;100203.94;4991968;28;20073;-46
2024/01/04 07:06:02;;;;;;;3.97;1.55;;;;;;;12.09;75.46;100203.88;4992094;28;20088;-46
2024/01/04 07:08:27;;;;;;;5.65;2.08;;;;;;;12.26;73.80;100209.06;4992541;28;20738;-46
2024/01/04 07:10:53;;;;;;;6.68;1.75;;;;;;;12.39;74.55;100208.09;4990381;28;20125;-46
2024/01/04 07:13:18;;;;;;;6.55;1.70;;;;;;;12.45;74.34;100205.44;4992388;28;20046;-48
2024/01/04 07:15:44;;;;;;;8.10;1.80;;;;;;;12.27;75.40;100213.38;4991375;28;20137;-45
2024/01/04 07:18:10;;;;;;;5.00;1.30;;;;;;;12.56;73.91;100211.53;4990946;28;20134;-46
2024/01/04 07:20:40;;;;;;;5.00;1.50;;;;;;;12.26;74.79;100220.34;4991460;28;20031;-49
2024/01/04 07:23:06;;;;;;;5.55;1.55;;;;;;;12.49;75.27;100225.50;4991963;28;20038;-43
2024/01/04 07:25:34;;;;;;;5.28;1.50;;;;;;;12.47;74.84;100230.72;4992356;28;20042;-44
2024/01/04 07:28:00;;;;;;;5.53;1.40;;;;;;;12.23;75.45;100232.56;4991196;28;20125;-44
2024/01/04 07:30:25;;;;;;;8.60;1.35;;;;;;;12.42;75.54;100235.13;4992467;28;20073;-45
2024/01/04 07:32:50;;;;;;;4.82;1.30;;;;;;;12.54;74.88;100234.19;4989477;28;20493;-48
2024/01/04 07:35:19;;;;;;;5.22;1.30;;;;;;;12.60;74.87;100234.16;4991380;28;20040;-47
2024/01/04 07:37:44;;;;;;;7.35;1.50;;;;;;;12.58;74.61;100243.75;4990961;28;20069;-45
2024/01/04 07:40:10;;;;;;;7.45;1.80;;;;;;;12.57;75.03;100247.22;4991104;28;20066;-47
2024/01/04 07:42:36;;;;;;;5.25;1.52;;;;;;;12.66;75.24;100247.19;4991405;28;20068;-46
2024/01/04 07:45:01;;;;;;;8.63;1.73;;;;;;;12.56;76.05;100248.13;4989000;28;20065;-46
2024/01/04 07:47:26;;;;;;;9.70;1.85;;;;;;;12.46;75.92;100252.50;4991464;28;20113;-46
2024/01/04 07:49:52;;;;;;;10.32;1.80;;;;;;;12.27;77.13;100255.19;4990734;28;20063;-50
2024/01/04 07:52:17;;;;;;;9.18;2.00;;;;;;;12.28;77.56;100259.56;4991305;28;20034;-44
2024/01/04 07:54:42;;;;;;;7.80;1.70;;;;;;;12.53;76.48;100261.19;4990705;28;20053;-45
2024/01/04 07:57:09;;;;;;;8.02;1.60;;;;;;;12.51;77.32;100257.72;4991464;28;20030;-44
2024/01/04 07:59:34;;;;;;;5.00;1.63;;;;;;;12.49;77.82;100262.09;4991332;28;20042;-44
2024/01/04 08:02:00;;;;;;;8.88;1.63;;;;;;;12.50;77.72;100266.47;4990693;28;20046;-46
2024/01/04 08:04:25;;;;;;;12.98;1.90;;;;;;;12.32;77.87;100269.97;4990679;28;20086;-47
2024/01/04 08:06:51;;;;;;;11.38;1.60;;;;;;;12.57;76.75;100271.63;4988156;28;20042;-48
2024/01/04 08:09:19;;;;;;;7.85;1.40;;;;;;;12.82;76.61;100266.28;4990350;28;20041;-44
2024/01/04 08:11:45;;;;;;;4.82;1.30;;;;;;;12.43;76.89;100276.06;4990138;28;20039;-49
2024/01/04 08:14:11;;;;;;;10.38;1.30;;;;;;;12.41;76.97;100275.19;4991680;28;20104;-46
2024/01/04 08:16:36;;;;;;;5.57;1.10;;;;;;;12.69;76.86;100273.31;4991650;28;20042;-46
2024/01/04 08:19:02;;;;;;;8.40;1.55;;;;;;;12.42;76.54;100274.31;4992700;28;20065;-45
2024/01/04 08:21:28;;;;;;;6.32;1.60;;;;;;;12.33;78.34;100273.47;4992073;28;20030;-46
2024/01/04 08:23:53;;;;;;;6.55;1.20;;;;;;;12.24;78.33;100277.00;4989524;28;20038;-48
2024/01/04 08:26:19;;;;;;;10.25;1.80;;;;;;;12.13;79.04;100270.94;4990519;28;20040;-45
2024/01/04 08:28:44;;;;;;;5.80;1.40;;;;;;;12.41;78.19;100277.81;4990316;28;20042;-45
2024/01/04 08:31:11;;;;;;;4.82;1.30;;;;;;;12.18;78.92;100272.66;4991206;28;20037;-47
2024/01/04 08:33:36;;;;;;;6.70;1.70;;;;;;;12.25;79.52;100280.50;4990289;28;20421;-45
2024/01/04 08:36:01;;;;;;;4.70;1.70;;;;;;;12.62;78.02;100278.59;4990315;28;20027;-45
2024/01/04 08:38:27;;;;;;;9.30;1.70;;;;;;;12.35;79.04;100287.41;4989445;28;20034;-43
2024/01/04 08:40:52;;;;;;;8.10;1.80;;;;;;;12.38;78.96;100285.66;4990316;28;20036;-44
2024/01/04 08:43:17;;;;;;;6.80;1.35;;;;;;;12.11;80.56;100284.00;4990475;28;20409;-44
2024/01/04 08:45:43;;;;;;;7.97;1.80;;;;;;;12.34;79.92;100296.13;4990539;28;20045;-46
2024/01/04 08:48:08;;;;;;;7.45;1.60;;;;;;;12.37;79.78;100296.13;4991497;28;20118;-45
2024/01/04 08:50:33;;;;;;;7.93;1.48;;;;;;;12.50;78.56;100295.22;4992335;28;20034;-44
2024/01/04 08:52:59;;;;;;;8.45;1.63;;;;;;;12.35;79.51;100295.25;4992148;28;20042;-45
2024/01/04 08:55:24;;;;;;;9.43;1.80;;;;;;;12.42;79.70;100308.31;4992770;28;20027;-50
2024/01/04 08:57:49;;;;;;;5.90;1.38;;;;;;;12.68;78.83;100309.97;4993200;28;20523;-46
2024/01/04 09:00:15;;;;;;;9.32;1.60;;;;;;;12.52;78.97;100314.38;4997988;28;20449;-45
2024/01/04 09:02:42;;;;;;;5.47;1.58;;;;;;;12.93;78.00;100316.78;4999262;28;20038;-45
2024/01/04 09:05:08;;;;;;;6.78;1.30;;;;;;;12.61;78.26;100319.56;4998024;28;20037;-46
2024/01/04 09:07:34;;;;;;;7.95;1.42;;;;;;;12.36;78.52;100318.78;4996289;28;20455;-46
2024/01/04 09:09:59;;;;;;;5.88;1.35;;;;;;;12.61;79.21;100324.81;4988992;28;20081;-47
2024/01/04 09:12:26;;;;;;;4.25;1.60;;;;;;;12.20;80.08;100327.50;4990613;28;20038;-44
2024/01/04 09:14:52;;;;;;;6.40;1.70;;;;;;;12.63;78.39;100330.00;4989734;28;20101;-43
2024/01/04 09:17:17;;;;;;;11.77;2.70;;;;;;;13.03;77.23;100339.44;4990354;28;20042;-47
2024/01/04 09:19:43;;;;;;;7.15;2.30;;;;;;;12.86;77.55;100333.44;4989836;28;20042;-46
2024/01/04 09:22:09;;;;;;;5.13;2.50;;;;;;;12.70;78.24;100329.97;4990016;28;20033;-44
2024/01/04 09:24:34;;;;;;;14.15;2.30;;;;;;;12.71;79.12;100326.50;4989549;28;20045;-46
2024/01/04 09:27:00;;;;;;;7.97;2.25;;;;;;;13.20;77.73;100332.38;4989446;28;20046;-46
2024/01/04 09:29:25;;;;;;;9.50;2.30;;;;;;;13.15;77.11;100335.91;4990405;28;20045;-43
2024/01/04 09:31:50;;;;;;;6.45;1.88;;;;;;;13.40;77.25;100338.38;4989504;28;20089;-48
2024/01/04 09:34:16;;;;;;;9.00;2.45;;;;;;;13.32;77.27;100334.94;4991634;28;20039;-49
2024/01/04 09:36:41;;;;;;;7.60;2.28;;;;;;;13.44;76.69;100341.84;4993388;28;20100;-45
2024/01/04 09:39:07;;;;;;;6.60;2.47;;;;;;;13.50;76.56;100344.41;4993332;28;20378;-44
2024/01/04 09:41:33;;;;;;;8.73;1.80;;;;;;;13.20;77.81;100349.84;4993841;28;20073;-47
2024/01/04 09:44:06;;;;;;;7.35;2.03;;;;;;;12.95;78.44;100359.53;4992747;28;20041;-44
2024/01/04 09:46:38;;;;;;;7.47;1.92;;;;;;;13.30;77.13;100360.25;4993204;28;20034;-46
2024/01/04 09:49:05;;;;;;;8.50;2.28;;;;;;;13.22;77.82;100363.81;4992919;28;20050;-47
2024/01/04 09:51:37;;;;;;;4.82;1.75;;;;;;;13.89;75.71;100371.19;4993647;28;20034;-50
2024/01/04 09:54:03;;;;;;;9.32;3.28;;;;;;;13.40;75.70;100375.03;4992375;28;20071;-45
2024/01/04 09:56:32;;;;;;;9.60;2.80;;;;;;;13.18;76.22;100383.88;4993063;28;20041;-47
2024/01/04 09:58:58;;;;;;;2.88;1.10;;;;;;;12.65;76.24;100397.13;4991504;28;20104;-45
2024/01/04 10:01:36;;;;;;;3.88;1.08;;;;;;;13.03;74.26;100399.63;4993736;28;20034;-49
2024/01/04 10:04:12;;;;;;;3.97;1.00;;;;;;;12.70;72.56;100400.59;4992925;28;20640;-49
2024/01/04 10:06:39;;;;;;;1.70;0.77;;;;;;;12.82;72.22;100407.53;4993051;28;20089;-46
2024/01/04 10:09:17;;;;;;;3.25;0.90;;;;;;;12.56;73.53;100405.03;4992718;28;20062;-45
2024/01/04 10:11:58;;;;;;;3.47;0.90;;;;;;;12.59;74.13;100416.31;4991900;28;20042;-45
2024/01/04 10:14:25;;;;;;;2.70;0.90;;;;;;;12.77;73.93;100415.41;4992645;28;20048;-46
2024/01/04 10:16:51;;;;;;;6.20;1.23;;;;;;;12.76;74.41;100420.63;4993838;28;20523;-43
2024/01/04 10:19:16;;;;;;;1.70;0.60;;;;;;;12.59;74.46;100415.44;4995474;28;20158;-48
2024/01/04 10:21:42;;;;;;;5.50;1.02;;;;;;;12.70;74.42;100408.44;4994085;28;20078;-46
2024/01/04 10:24:09;;;;;;;4.88;1.52;;;;;;;12.83;74.67;100411.91;4992770;28;20030;-43
2024/01/04 10:26:35;;;;;;;5.18;1.35;;;;;;;12.76;74.55;100418.03;4995045;28;20050;-43
2024/01/04 10:29:01;;;;;;;5.82;1.85;;;;;;;12.65;74.72;100418.06;4994748;28;20509;-43
2024/01/04 10:31:27;;;;;;;10.15;1.90;;;;;;;12.52;75.79;100418.94;4993757;28;20030;-48
2024/01/04 10:34:00;;;;;;;3.20;1.00;;;;;;;12.84;74.89;100411.91;4991976;28;20058;-46
2024/01/04 10:36:29;;;;;;;2.92;1.00;;;;;;;12.66;76.01;100417.19;4992644;28;20505;-46
2024/01/04 10:38:59;;;;;;;6.70;1.40;;;;;;;12.84;75.43;100419.75;4992091;28;20045;-45
2024/01/04 10:41:30;;;;;;;7.45;1.23;;;;;;;13.00;75.32;100412.72;4993239;28;20563;-45
2024/01/04 10:44:06;;;;;;;4.05;1.13;;;;;;;12.99;75.06;100417.06;4991924;28;20039;-43
2024/01/04 10:46:36;;;;;;;3.95;1.05;;;;;;;13.28;74.52;100417.00;4992146;28;20042;-44
2024/01/04 10:49:02;;;;;;;5.25;0.90;;;;;;;13.54;73.86;100418.59;4992915;28;20049;-48
2024/01/04 10:51:33;;;;;;;8.65;1.17;;;;;;;13.32;74.37;100415.22;4993154;28;20045;-44
2024/01/04 10:54:00;;;;;;;11.52;1.25;;;;;;;13.35;73.77;100413.47;4991976;28;20042;-41
2024/01/04 10:56:29;;;;;;;5.25;1.30;;;;;;;13.49;74.04;100417.75;4992836;28;20563;-44
2024/01/04 10:58:56;;;;;;;4.45;1.00;;;;;;;13.50;73.98;100415.13;4992782;28;20088;-43
2024/01/04 11:01:22;;;;;;;8.25;1.30;;;;;;;13.64;74.02;100412.44;4994274;28;20041;-44
2024/01/04 11:03:49;;;;;;;7.80;1.40;;;;;;;13.62;74.63;100408.94;4992401;28;20416;-44
2024/01/04 11:06:15;;;;;;;6.47;1.42;;;;;;;13.23;76.09;100415.28;4993239;28;20042;-45
2024/01/04 11:08:41;;;;;;;10.38;1.20;;;;;;;13.31;76.20;100419.59;4992503;28;20555;-44
2024/01/04 11:11:09;;;;;;;6.00;1.40;;;;;;;13.23;76.54;100413.53;4991565;28;20054;-44
2024/01/04 11:13:35;;;;;;;4.75;1.23;;;;;;;13.60;75.69;100416.78;4991576;28;20544;-45
2024/01/04 11:16:14;;;;;;;7.10;1.27;;;;;;;13.70;75.05;100415.88;4990290;28;20125;-47
2024/01/04 11:19:17;;;;;;;4.47;1.20;;;;;;;13.61;74.42;100409.81;4990767;28;20039;-45